Time;durP1;ratioP1;P1;durP2;ratioP2;P2;SDS_P1;SDS_P2;PMS_P1;PMS_P2;Temp;Humidity;BMP_temperature;BMP_pressure;BME280_temperature;BME280_humidity;BME280_pressure;Samples;Min_cycle;Max_cycle;Signal;HPM_P1;HPM_P2
2022/08/29 00:00:14;;;;;;;3.88;1.80;;;25.20;96.70;;;;;;5053150;28;20409;-75
2022/08/29 00:02:46;;;;;;;2.92;1.75;;;25.20;96.70;;;;;;5051363;28;20135;-75
2022/08/29 00:05:14;;;;;;;4.25;1.83;;;25.20;96.70;;;;;;5031974;28;20478;-75
2022/08/29 00:07:42;;;;;;;2.80;1.70;;;25.10;96.70;;;;;;5035835;28;20079;-75
2022/08/29 00:10:10;;;;;;;2.80;1.52;;;25.20;96.70;;;;;;5048635;28;20041;-74
2022/08/29 00:12:38;;;;;;;3.00;1.70;;;25.10;96.70;;;;;;5041840;28;20084;-75
2022/08/29 00:15:15;;;;;;;4.28;1.77;;;25.00;96.70;;;;;;5053275;28;20047;-75
2022/08/29 00:17:43;;;;;;;3.92;1.63;;;25.00;96.70;;;;;;5049213;28;20091;-75
2022/08/29 00:20:15;;;;;;;5.32;1.80;;;25.00;96.70;;;;;;5033489;28;20041;-74
2022/08/29 00:22:44;;;;;;;3.40;1.55;;;25.00;96.70;;;;;;5057138;28;20048;-75
2022/08/29 00:25:14;;;;;;;3.05;1.73;;;24.90;96.70;;;;;;5057991;28;20045;-75
2022/08/29 00:27:42;;;;;;;6.30;1.83;;;24.80;96.70;;;;;;5034045;28;20072;-75
2022/08/29 00:30:19;;;;;;;3.28;1.73;;;24.80;96.70;;;;;;5058608;28;20051;-75
2022/08/29 00:32:47;;;;;;;2.42;1.60;;;24.90;96.70;;;;;;5051499;28;20072;-75
2022/08/29 00:35:19;;;;;;;2.78;1.52;;;24.80;96.70;;;;;;5039228;28;20040;-75
2022/08/29 00:37:47;;;;;;;2.05;1.85;;;24.70;96.70;;;;;;5049920;28;20052;-75
2022/08/29 00:40:20;;;;;;;5.15;1.90;;;24.90;96.70;;;;;;5061550;28;20510;-75
2022/08/29 00:42:48;;;;;;;2.55;1.35;;;24.90;96.70;;;;;;5033645;28;20049;-75
2022/08/29 00:45:18;;;;;;;3.05;1.73;;;24.90;96.70;;;;;;5057147;28;20057;-75
2022/08/29 00:47:51;;;;;;;2.85;1.98;;;24.90;96.70;;;;;;5045547;28;20479;-75
2022/08/29 00:50:27;;;;;;;3.78;1.30;;;24.90;96.70;;;;;;5028308;28;20143;-75
2022/08/29 00:52:56;;;;;;;3.08;1.63;;;24.80;96.70;;;;;;5034266;28;20131;-75
2022/08/29 00:55:30;;;;;;;3.47;1.60;;;24.60;96.70;;;;;;5054463;28;20045;-75
2022/08/29 00:58:02;;;;;;;4.15;1.73;;;24.50;96.70;;;;;;5023156;28;20505;-75
2022/08/29 01:00:32;;;;;;;1.75;1.58;;;24.40;96.70;;;;;;5051380;28;20052;-74
2022/08/29 01:03:01;;;;;;;2.83;1.67;;;24.40;96.70;;;;;;5050020;28;20120;-75
2022/08/29 01:05:29;;;;;;;3.97;2.00;;;24.50;96.70;;;;;;5038277;28;20106;-75
2022/08/29 01:07:58;;;;;;;2.22;1.70;;;24.40;96.70;;;;;;5050166;28;20064;-75
2022/08/29 01:13:13;;;;;;;2.33;1.98;;;24.40;96.70;;;;;;5056027;28;20089;-75
2022/08/29 01:15:44;;;;;;;2.60;1.90;;;24.20;96.70;;;;;;5053328;28;20619;-75
2022/08/29 01:18:14;;;;;;;2.90;1.90;;;24.20;96.70;;;;;;5055043;28;20180;-74
2022/08/29 01:20:56;;;;;;;2.25;1.90;;;24.30;96.70;;;;;;5057366;28;20047;-74
2022/08/29 01:23:32;;;;;;;2.92;1.70;;;24.40;96.70;;;;;;5053289;28;20055;-75
2022/08/29 01:26:02;;;;;;;3.27;2.03;;;24.50;96.70;;;;;;5057796;28;20065;-75
2022/08/29 01:28:34;;;;;;;3.47;2.22;;;24.40;96.70;;;;;;5041554;28;20380;-76
2022/08/29 01:31:05;;;;;;;3.50;1.92;;;24.40;96.70;;;;;;5043972;28;20152;-75
2022/08/29 01:33:38;;;;;;;1.85;1.42;;;24.40;96.70;;;;;;5057837;28;20041;-74
2022/08/29 01:36:09;;;;;;;5.53;1.92;;;24.40;96.70;;;;;;5048074;28;20442;-75
2022/08/29 01:38:37;;;;;;;3.58;1.67;;;24.50;96.70;;;;;;5056469;28;20549;-75
2022/08/29 01:41:09;;;;;;;4.22;1.65;;;24.50;96.70;;;;;;5057488;28;20631;-75
2022/08/29 01:43:42;;;;;;;2.22;1.55;;;24.40;96.70;;;;;;5059604;28;20090;-74
2022/08/29 01:46:13;;;;;;;2.58;1.70;;;24.40;96.70;;;;;;5055815;28;20526;-75
2022/08/29 01:48:43;;;;;;;1.65;1.30;;;24.40;96.70;;;;;;5041847;28;20213;-76
2022/08/29 01:51:13;;;;;;;1.83;1.70;;;24.30;96.70;;;;;;5059618;28;20120;-74
2022/08/29 01:53:42;;;;;;;4.25;1.50;;;24.30;96.70;;;;;;5050188;28;20053;-75
2022/08/29 01:56:14;;;;;;;1.88;1.50;;;24.30;96.70;;;;;;5058213;28;20044;-75
2022/08/29 01:58:43;;;;;;;3.10;1.70;;;24.30;96.70;;;;;;5044410;28;20057;-75
2022/08/29 02:01:14;;;;;;;3.38;1.67;;;24.30;96.70;;;;;;5037337;28;20053;-75
2022/08/29 02:03:44;;;;;;;2.78;1.65;;;24.40;96.70;;;;;;5048688;28;20137;-75
2022/08/29 02:06:13;;;;;;;2.00;1.50;;;24.40;96.70;;;;;;5030599;28;20053;-75
2022/08/29 02:08:42;;;;;;;3.08;1.60;;;24.30;96.70;;;;;;5003938;28;20046;-75
2022/08/29 02:11:14;;;;;;;4.85;1.70;;;24.30;96.70;;;;;;5024808;28;20052;-74
2022/08/29 02:13:44;;;;;;;3.08;1.50;;;24.20;96.70;;;;;;5002403;28;20408;-75
2022/08/29 02:16:13;;;;;;;3.47;1.50;;;24.10;96.70;;;;;;5019512;28;20095;-76
2022/08/29 02:18:41;;;;;;;1.92;1.50;;;24.10;96.70;;;;;;5017584;28;20522;-75
2022/08/29 02:21:11;;;;;;;2.95;1.63;;;24.30;96.70;;;;;;5016298;28;20053;-75
2022/08/29 02:23:40;;;;;;;5.88;2.10;;;24.30;96.70;;;;;;5016762;28;20045;-75
2022/08/29 02:26:09;;;;;;;3.00;1.30;;;24.20;96.70;;;;;;5016217;28;20049;-75
2022/08/29 02:28:40;;;;;;;3.47;1.88;;;24.10;96.70;;;;;;5014555;28;20045;-75
2022/08/29 02:31:08;;;;;;;4.63;1.92;;;24.00;96.70;;;;;;5023238;28;20049;-75
2022/08/29 02:33:36;;;;;;;3.47;1.80;;;24.00;96.70;;;;;;5015192;28;20037;-75
2022/08/29 02:36:05;;;;;;;1.83;1.70;;;24.10;96.70;;;;;;5019258;28;20046;-75
2022/08/29 02:38:34;;;;;;;3.20;1.63;;;24.20;96.70;;;;;;5017652;28;20076;-75
2022/08/29 02:41:02;;;;;;;2.78;1.70;;;24.20;96.70;;;;;;5021926;28;20096;-75
2022/08/29 02:43:30;;;;;;;2.22;1.60;;;24.00;96.70;;;;;;5023061;28;20056;-75
2022/08/29 02:46:00;;;;;;;2.90;1.65;;;23.90;96.70;;;;;;5023594;28;20076;-75
2022/08/29 02:48:28;;;;;;;7.07;1.88;;;24.00;96.70;;;;;;5019920;28;20152;-75
2022/08/29 02:51:00;;;;;;;2.92;1.65;;;23.90;96.70;;;;;;5017370;28;20569;-75
2022/08/29 02:53:29;;;;;;;2.00;1.50;;;24.00;96.70;;;;;;5019285;28;20461;-75
2022/08/29 02:55:58;;;;;;;2.97;1.90;;;24.10;96.70;;;;;;5019505;28;20747;-75
2022/08/29 02:58:26;;;;;;;5.13;1.75;;;24.10;96.70;;;;;;4997123;28;20046;-75
2022/08/29 03:00:55;;;;;;;3.10;1.45;;;23.90;96.70;;;;;;5016342;28;20063;-75
2022/08/29 03:03:26;;;;;;;2.38;1.65;;;23.80;96.70;;;;;;5022871;28;20072;-76
2022/08/29 03:05:55;;;;;;;3.95;1.58;;;23.80;96.70;;;;;;5011881;28;20174;-76
2022/08/29 03:08:23;;;;;;;4.85;1.90;;;23.80;96.70;;;;;;5019149;28;20053;-76
2022/08/29 03:10:51;;;;;;;5.05;1.70;;;23.90;96.70;;;;;;5012665;28;20048;-77
2022/08/29 03:13:19;;;;;;;1.70;1.25;;;23.90;96.70;;;;;;5019104;28;20124;-76
2022/08/29 03:15:47;;;;;;;1.70;1.60;;;23.90;96.70;;;;;;5015040;28;20065;-76
2022/08/29 03:18:16;;;;;;;2.58;1.48;;;23.90;96.70;;;;;;5018474;28;20344;-77
2022/08/29 03:20:45;;;;;;;4.32;2.45;;;23.90;96.70;;;;;;5016256;28;20048;-77
2022/08/29 03:23:14;;;;;;;2.53;1.65;;;23.80;96.70;;;;;;5018534;28;20120;-76
2022/08/29 03:25:42;;;;;;;4.25;1.60;;;23.70;96.70;;;;;;5014706;28;20411;-76
2022/08/29 03:28:10;;;;;;;2.25;1.48;;;23.70;96.70;;;;;;5017605;28;20049;-76
2022/08/29 03:30:38;;;;;;;2.97;1.27;;;23.70;96.70;;;;;;5021472;28;20042;-76
2022/08/29 03:33:06;;;;;;;2.97;1.70;;;23.80;96.70;;;;;;5017954;28;20045;-76
2022/08/29 03:35:38;;;;;;;2.80;1.73;;;23.80;96.70;;;;;;5017418;28;20046;-76
2022/08/29 03:38:08;;;;;;;3.25;1.42;;;23.70;96.70;;;;;;5016393;28;20046;-76
2022/08/29 03:40:39;;;;;;;4.65;1.52;;;23.60;96.70;;;;;;5017215;28;20404;-76
2022/08/29 03:43:08;;;;;;;3.20;1.30;;;23.60;96.70;;;;;;5015917;28;20415;-78
2022/08/29 03:45:36;;;;;;;2.90;1.55;;;23.60;96.70;;;;;;5014306;28;20080;-77
2022/08/29 03:48:05;;;;;;;3.30;1.60;;;23.60;96.70;;;;;;5020037;28;20057;-76
2022/08/29 03:50:32;;;;;;;3.72;1.92;;;23.60;96.70;;;;;;5013012;28;20049;-76
2022/08/29 03:53:01;;;;;;;2.05;1.63;;;23.70;96.70;;;;;;5014117;28;20044;-76
2022/08/29 03:55:30;;;;;;;4.32;1.75;;;23.60;96.70;;;;;;5021306;28;20059;-76
2022/08/29 03:57:58;;;;;;;3.38;1.60;;;23.40;96.70;;;;;;5014208;28;20509;-76
2022/08/29 04:00:26;;;;;;;2.83;1.70;;;23.40;96.70;;;;;;5018326;28;20038;-77
2022/08/29 04:02:56;;;;;;;3.08;1.45;;;23.50;96.70;;;;;;5019760;28;20410;-77
2022/08/29 04:05:25;;;;;;;3.63;1.42;;;23.60;96.70;;;;;;5021304;28;20415;-77
2022/08/29 04:07:55;;;;;;;4.47;1.40;;;23.50;96.70;;;;;;5021196;28;20148;-76
2022/08/29 04:10:26;;;;;;;1.73;1.63;;;23.60;96.70;;;;;;5042499;28;20387;-76
2022/08/29 04:12:56;;;;;;;2.38;1.52;;;23.70;96.70;;;;;;5026781;28;20068;-77
2022/08/29 04:15:27;;;;;;;4.13;1.90;;;23.60;96.70;;;;;;5061636;28;20422;-77
2022/08/29 04:17:56;;;;;;;4.30;1.63;;;23.60;96.70;;;;;;5027747;28;20052;-76
2022/08/29 04:20:28;;;;;;;4.70;1.63;;;23.50;96.70;;;;;;5022194;28;20102;-75
2022/08/29 04:22:58;;;;;;;2.95;1.70;;;23.40;96.70;;;;;;5037120;28;20152;-75
2022/08/29 04:25:34;;;;;;;3.20;1.95;;;23.50;96.70;;;;;;5038435;28;20047;-75
2022/08/29 04:28:07;;;;;;;2.60;1.90;;;23.50;96.70;;;;;;5036638;28;20063;-75
2022/08/29 04:30:35;;;;;;;3.00;1.63;;;23.40;96.70;;;;;;5049940;28;20080;-76
2022/08/29 04:33:03;;;;;;;5.22;1.77;;;23.40;96.70;;;;;;5048291;28;20068;-75
2022/08/29 04:35:31;;;;;;;5.20;1.60;;;23.50;96.70;;;;;;5058194;28;20037;-76
2022/08/29 04:37:59;;;;;;;4.28;1.77;;;23.40;96.70;;;;;;5048070;28;20098;-77
2022/08/29 04:40:29;;;;;;;2.67;1.70;;;23.30;96.70;;;;;;5038425;28;20053;-76
2022/08/29 04:42:59;;;;;;;2.83;1.50;;;23.20;96.70;;;;;;5038842;28;20056;-75
2022/08/29 04:45:29;;;;;;;3.70;1.70;;;23.30;96.70;;;;;;5059726;28;20052;-75
2022/08/29 04:47:57;;;;;;;3.65;1.80;;;23.20;96.70;;;;;;5065722;28;20037;-76
2022/08/29 04:50:30;;;;;;;3.85;1.50;;;23.20;96.70;;;;;;5057012;28;20044;-75
2022/08/29 04:52:58;;;;;;;2.08;1.85;;;23.10;96.70;;;;;;5047906;28;20041;-76
2022/08/29 04:55:26;;;;;;;5.68;2.15;;;23.00;96.70;;;;;;5058777;28;20045;-76
2022/08/29 04:57:55;;;;;;;4.32;2.20;;;23.10;96.70;;;;;;5057831;28;20047;-76
2022/08/29 05:00:26;;;;;;;3.92;2.22;;;23.20;96.70;;;;;;5041174;28;20041;-75
2022/08/29 05:02:56;;;;;;;2.38;1.90;;;23.10;96.70;;;;;;5026923;28;20052;-75
2022/08/29 05:05:24;;;;;;;3.75;1.90;;;23.00;96.70;;;;;;5028980;28;20052;-75
2022/08/29 05:07:52;;;;;;;3.47;1.83;;;23.20;96.70;;;;;;5035831;28;20048;-75
2022/08/29 05:10:21;;;;;;;2.88;1.95;;;23.20;96.70;;;;;;5040530;28;20037;-75
2022/08/29 05:12:49;;;;;;;2.55;1.85;;;23.30;96.70;;;;;;5045225;28;20562;-76
2022/08/29 05:15:17;;;;;;;2.60;1.70;;;23.30;96.70;;;;;;5029787;28;20033;-75
2022/08/29 05:17:45;;;;;;;2.70;1.77;;;23.30;96.70;;;;;;5052004;28;20572;-75
2022/08/29 05:20:15;;;;;;;3.67;1.67;;;23.40;96.70;;;;;;5054143;28;20060;-75
2022/08/29 05:22:43;;;;;;;3.60;1.48;;;23.60;96.70;;;;;;5053778;28;20056;-75
2022/08/29 05:25:12;;;;;;;3.63;1.83;;;23.60;96.70;;;;;;5055822;28;20147;-75
2022/08/29 05:27:45;;;;;;;3.88;1.65;;;23.50;96.70;;;;;;5023893;28;20058;-75
2022/08/29 05:30:15;;;;;;;6.70;1.67;;;23.50;96.70;;;;;;5043443;28;20037;-75
2022/08/29 05:33:02;;;;;;;3.95;2.10;;;23.40;96.70;;;;;;5041275;28;20052;-76
2022/08/29 05:35:32;;;;;;;4.32;1.90;;;23.40;96.70;;;;;;5062817;28;20052;-75
2022/08/29 05:38:01;;;;;;;5.60;2.38;;;23.50;96.70;;;;;;5044209;28;20131;-76
2022/08/29 05:40:36;;;;;;;2.92;1.98;;;23.50;96.70;;;;;;5053495;28;20047;-76
2022/08/29 05:43:04;;;;;;;5.57;2.10;;;23.50;96.70;;;;;;5039872;28;20040;-75
2022/08/29 05:45:32;;;;;;;6.65;2.20;;;23.60;96.70;;;;;;5043137;28;20040;-76
2022/08/29 05:48:03;;;;;;;3.53;2.33;;;23.60;96.70;;;;;;5047172;28;20052;-76
2022/08/29 05:50:37;;;;;;;3.67;2.72;;;23.60;96.70;;;;;;5034746;28;20062;-77
2022/08/29 05:53:05;;;;;;;4.80;2.80;;;23.60;96.70;;;;;;5058975;28;20578;-77
2022/08/29 05:55:37;;;;;;;3.58;2.50;;;23.60;96.70;;;;;;5019482;28;20702;-76
2022/08/29 05:58:07;;;;;;;4.30;2.80;;;23.60;96.70;;;;;;5044340;28;20040;-76
2022/08/29 06:00:38;;;;;;;3.83;2.85;;;23.40;96.70;;;;;;5041714;28;20051;-76
2022/08/29 06:03:07;;;;;;;5.32;2.72;;;23.50;96.70;;;;;;5052923;28;20044;-75
2022/08/29 06:05:38;;;;;;;4.57;2.75;;;23.60;96.70;;;;;;5050924;28;20048;-75
2022/08/29 06:08:06;;;;;;;6.72;2.38;;;23.60;96.70;;;;;;5039451;28;20052;-75
2022/08/29 06:10:40;;;;;;;3.55;2.70;;;23.50;96.70;;;;;;5038899;28;20044;-75
2022/08/29 06:13:08;;;;;;;3.40;2.40;;;23.60;96.70;;;;;;5042241;28;20049;-75
2022/08/29 06:15:37;;;;;;;2.88;2.50;;;23.60;96.70;;;;;;5039577;28;20044;-75
2022/08/29 06:18:05;;;;;;;4.53;2.40;;;23.50;96.70;;;;;;5042736;28;20465;-76
2022/08/29 06:20:33;;;;;;;4.30;2.65;;;23.50;96.70;;;;;;5053183;28;20445;-75
2022/08/29 06:23:03;;;;;;;4.78;2.45;;;23.60;96.70;;;;;;5051622;28;20698;-74
2022/08/29 06:25:31;;;;;;;7.20;3.15;;;23.80;96.70;;;;;;5043927;28;20095;-75
2022/08/29 06:28:07;;;;;;;4.03;2.33;;;23.70;96.70;;;;;;5038026;28;20049;-76
2022/08/29 06:30:35;;;;;;;3.72;2.67;;;23.70;96.70;;;;;;5042826;28;20136;-74
2022/08/29 06:33:03;;;;;;;2.83;2.10;;;23.90;96.70;;;;;;5056808;28;20048;-74
2022/08/29 06:35:32;;;;;;;5.00;2.60;;;23.90;96.70;;;;;;5038007;28;20041;-74
2022/08/29 06:38:00;;;;;;;3.97;2.38;;;23.90;96.70;;;;;;5036577;28;20684;-77
2022/08/29 06:40:29;;;;;;;3.53;2.55;;;23.90;96.70;;;;;;5061757;28;20077;-76
2022/08/29 06:42:58;;;;;;;4.53;2.10;;;24.00;96.70;;;;;;5055940;28;20044;-76
2022/08/29 06:45:26;;;;;;;6.32;2.50;;;24.10;96.70;;;;;;5024417;28;20120;-76
2022/08/29 06:47:54;;;;;;;4.15;2.10;;;24.20;96.70;;;;;;5046032;28;20094;-74
2022/08/29 06:50:22;;;;;;;2.85;2.03;;;24.20;96.70;;;;;;5054776;28;20425;-75
2022/08/29 06:52:50;;;;;;;5.55;2.25;;;24.30;96.70;;;;;;5050579;28;20362;-76
2022/08/29 06:55:21;;;;;;;3.60;2.28;;;24.30;96.70;;;;;;5063943;28;20048;-77
2022/08/29 06:57:52;;;;;;;3.83;2.35;;;24.40;96.70;;;;;;5049961;28;20043;-77
2022/08/29 07:00:22;;;;;;;3.08;2.00;;;24.40;96.70;;;;;;5039454;28;20466;-76
2022/08/29 07:02:51;;;;;;;5.43;2.15;;;24.40;96.70;;;;;;5035409;28;20041;-77
2022/08/29 07:05:20;;;;;;;4.70;2.53;;;24.50;96.70;;;;;;5058444;28;20044;-77
2022/08/29 07:07:49;;;;;;;3.05;2.30;;;24.60;96.70;;;;;;5041346;28;20118;-77
2022/08/29 07:10:18;;;;;;;5.60;1.90;;;24.70;96.70;;;;;;5048250;28;20050;-77
2022/08/29 07:12:53;;;;;;;5.05;2.65;;;24.70;96.70;;;;;;5039485;28;20047;-77
2022/08/29 07:15:22;;;;;;;3.50;2.45;;;24.60;96.70;;;;;;5041852;28;20139;-77
2022/08/29 07:17:50;;;;;;;5.57;2.00;;;24.60;96.70;;;;;;5049916;28;20145;-77
2022/08/29 07:20:24;;;;;;;2.53;2.25;;;24.70;96.70;;;;;;5058366;28;20056;-77
2022/08/29 07:22:52;;;;;;;7.57;2.67;;;24.80;96.70;;;;;;5067295;28;20498;-77
2022/08/29 07:25:20;;;;;;;3.15;2.20;;;24.90;96.70;;;;;;5037401;28;20528;-77
2022/08/29 07:27:50;;;;;;;3.83;2.00;;;24.90;96.70;;;;;;5052285;28;20052;-76
2022/08/29 07:30:22;;;;;;;2.28;1.73;;;25.00;96.70;;;;;;5058872;28;20454;-77
2022/08/29 07:32:50;;;;;;;5.47;2.35;;;25.00;96.70;;;;;;5040185;28;20071;-76
2022/08/29 07:35:19;;;;;;;4.32;2.58;;;25.10;96.70;;;;;;5040664;28;20048;-76
2022/08/29 07:37:58;;;;;;;3.22;2.30;;;25.10;96.70;;;;;;5039108;28;20052;-77
2022/08/29 07:40:26;;;;;;;4.68;1.80;;;25.20;96.70;;;;;;5037154;28;20045;-76
2022/08/29 07:42:54;;;;;;;3.45;1.90;;;25.20;96.70;;;;;;5025930;28;20568;-77
2022/08/29 07:45:24;;;;;;;5.05;2.25;;;25.20;96.70;;;;;;5035229;28;20499;-77
2022/08/29 07:47:52;;;;;;;2.72;2.03;;;25.30;96.70;;;;;;5039120;28;20467;-77
2022/08/29 07:50:20;;;;;;;2.30;1.80;;;25.30;96.70;;;;;;5040419;28;20041;-77
2022/08/29 07:52:48;;;;;;;3.45;2.03;;;25.40;96.70;;;;;;5039498;28;20102;-77
2022/08/29 07:55:16;;;;;;;4.38;2.10;;;25.40;96.70;;;;;;5025300;28;20047;-77
2022/08/29 07:57:47;;;;;;;3.17;1.70;;;25.50;96.70;;;;;;5038012;28;20122;-77
2022/08/29 08:00:15;;;;;;;2.75;1.63;;;25.50;96.70;;;;;;5049315;28;20068;-77
2022/08/29 08:02:46;;;;;;;4.93;1.88;;;25.60;96.70;;;;;;5037739;28;20134;-76
2022/08/29 08:05:14;;;;;;;1.95;1.60;;;25.60;96.70;;;;;;5046505;28;20495;-77
2022/08/29 08:07:48;;;;;;;2.85;1.90;;;25.70;96.70;;;;;;5061045;28;20076;-77
2022/08/29 08:10:22;;;;;;;3.10;1.60;;;25.70;96.70;;;;;;5046680;28;20040;-78
2022/08/29 08:12:50;;;;;;;2.63;1.70;;;25.70;96.70;;;;;;5062137;28;20077;-78
2022/08/29 08:15:21;;;;;;;2.95;2.03;;;25.80;96.70;;;;;;5037475;28;20535;-78
2022/08/29 08:18:17;;;;;;;;;;;25.90;96.70;;;;;;5038598;28;20052;-78
2022/08/29 08:20:47;;;;;;;2.95;1.67;;;25.90;96.70;;;;;;5071303;28;20048;-78
2022/08/29 08:23:15;;;;;;;5.32;1.95;;;26.00;96.70;;;;;;5036624;28;20057;-79
2022/08/29 08:25:44;;;;;;;2.88;1.80;;;26.10;96.70;;;;;;5035970;28;20490;-78
2022/08/29 08:28:13;;;;;;;1.90;1.60;;;26.10;96.70;;;;;;5048797;28;20045;-78
2022/08/29 08:30:42;;;;;;;2.63;2.00;;;26.20;96.70;;;;;;5038613;28;20236;-77
2022/08/29 08:33:10;;;;;;;4.35;1.45;;;26.30;96.70;;;;;;5038028;28;20588;-78
2022/08/29 08:35:40;;;;;;;3.33;1.83;;;26.20;96.70;;;;;;5041774;28;20045;-78
2022/08/29 08:38:09;;;;;;;4.28;2.05;;;26.20;96.70;;;;;;5027311;28;20057;-78
2022/08/29 08:40:44;;;;;;;3.83;1.90;;;26.30;96.70;;;;;;5035437;28;20045;-77
2022/08/29 08:43:15;;;;;;;2.78;1.73;;;26.30;96.70;;;;;;5037309;28;20045;-76
2022/08/29 08:45:55;;;;;;;1.88;1.70;;;26.30;96.70;;;;;;5038103;28;20048;-76
2022/08/29 08:48:32;;;;;;;3.90;1.98;;;26.30;96.70;;;;;;5039649;28;20075;-77
2022/08/29 08:51:09;;;;;;;3.15;1.90;;;26.40;96.70;;;;;;5049460;28;20554;-77
2022/08/29 08:53:40;;;;;;;2.85;1.85;;;26.50;96.70;;;;;;5043182;28;20473;-78
2022/08/29 08:56:14;;;;;;;3.35;2.05;;;26.60;96.70;;;;;;5056723;28;20040;-77
2022/08/29 08:58:50;;;;;;;6.50;2.03;;;26.70;96.70;;;;;;5040377;28;20049;-77
2022/08/29 09:01:21;;;;;;;3.28;2.05;;;26.80;96.70;;;;;;5049754;28;20048;-77
2022/08/29 09:04:12;;;;;;;2.60;1.50;;;26.90;96.70;;;;;;5022360;28;20122;-78
2022/08/29 09:06:54;;;;;;;3.05;1.60;;;27.00;96.70;;;;;;5018471;28;20066;-77
2022/08/29 09:09:30;;;;;;;3.67;1.73;;;27.00;96.70;;;;;;5021605;28;20046;-77
2022/08/29 09:12:12;;;;;;;3.17;1.90;;;27.10;96.70;;;;;;5017156;28;20408;-78
2022/08/29 09:14:55;;;;;;;3.78;1.90;;;27.20;96.70;;;;;;5019535;28;20045;-77
2022/08/29 09:17:29;;;;;;;3.97;1.80;;;27.20;96.70;;;;;;5026325;28;20049;-77
2022/08/29 09:20:07;;;;;;;2.42;1.73;;;27.40;96.70;;;;;;5021131;28;20059;-76
2022/08/29 09:22:39;;;;;;;2.15;1.50;;;27.50;96.70;;;;;;5018493;28;20053;-77
2022/08/29 09:25:10;;;;;;;2.97;1.60;;;27.40;96.70;;;;;;5022314;28;20091;-76
2022/08/29 09:27:38;;;;;;;4.35;1.65;;;27.40;96.70;;;;;;5015154;28;20055;-76
2022/08/29 09:30:10;;;;;;;3.50;1.73;;;27.50;96.70;;;;;;5016052;28;20073;-77
2022/08/29 09:32:59;;;;;;;2.45;1.70;;;27.60;96.70;;;;;;5014726;28;20057;-77
2022/08/29 09:35:32;;;;;;;2.47;2.05;;;27.60;96.70;;;;;;5016603;28;20069;-76
2022/08/29 09:38:05;;;;;;;2.40;1.73;;;27.60;96.70;;;;;;5005079;28;20049;-76
2022/08/29 09:40:50;;;;;;;2.67;1.83;;;27.70;96.70;;;;;;5018912;28;20357;-76
2022/08/29 09:43:25;;;;;;;3.90;1.80;;;27.70;96.70;;;;;;5023420;28;20076;-76
2022/08/29 09:46:16;;;;;;;3.78;2.10;;;27.70;96.70;;;;;;5018634;28;20546;-76
2022/08/29 09:48:47;;;;;;;3.78;1.88;;;27.80;96.70;;;;;;5040311;28;20192;-76
2022/08/29 09:51:23;;;;;;;2.75;1.50;;;27.90;96.70;;;;;;5014677;28;20137;-76
2022/08/29 09:54:12;;;;;;;3.83;1.90;;;28.10;96.70;;;;;;5018939;28;20570;-76
2022/08/29 09:56:49;;;;;;;5.35;1.85;;;28.30;96.70;;;;;;5014514;28;20051;-76
2022/08/29 09:59:28;;;;;;;3.00;1.77;;;28.40;96.70;;;;;;5020165;28;20135;-76
2022/08/29 10:02:18;;;;;;;2.42;1.60;;;28.50;96.70;;;;;;5024111;28;20776;-77
2022/08/29 10:04:49;;;;;;;3.13;1.77;;;28.40;96.70;;;;;;5019591;28;20049;-77
2022/08/29 10:07:20;;;;;;;3.65;2.08;;;28.40;96.70;;;;;;5052080;28;20052;-77
2022/08/29 10:09:59;;;;;;;2.15;1.77;;;28.30;96.70;;;;;;5056133;28;20094;-77
2022/08/29 10:12:35;;;;;;;4.10;1.75;;;28.40;96.70;;;;;;5060881;28;20097;-77
2022/08/29 10:15:09;;;;;;;3.47;2.00;;;28.40;96.70;;;;;;5047535;28;20044;-77
2022/08/29 10:18:19;;;;;;;3.97;2.08;;;28.50;96.70;;;;;;5042393;28;20055;-77
2022/08/29 10:20:58;;;;;;;2.35;1.98;;;28.80;96.70;;;;;;5056725;28;20037;-76
2022/08/29 10:23:34;;;;;;;6.40;2.20;;;29.00;96.70;;;;;;5040218;28;20052;-76
2022/08/29 10:26:16;;;;;;;3.78;1.88;;;29.10;96.70;;;;;;5056102;28;20049;-76
2022/08/29 10:28:50;;;;;;;4.72;2.15;;;28.90;96.70;;;;;;5039565;28;20614;-76
2022/08/29 10:31:26;;;;;;;5.28;2.13;;;28.90;96.70;;;;;;5057002;28;20138;-76
2022/08/29 10:34:12;;;;;;;5.47;1.98;;;29.10;96.70;;;;;;5062380;28;20049;-76
2022/08/29 10:36:46;;;;;;;6.50;2.33;;;29.20;96.70;;;;;;5059469;28;20048;-76
2022/08/29 10:39:24;;;;;;;3.20;1.90;;;29.20;96.70;;;;;;5051214;28;20162;-76
2022/08/29 10:42:04;;;;;;;3.78;2.72;;;29.30;96.70;;;;;;5037007;28;20048;-76
2022/08/29 10:44:41;;;;;;;3.75;2.33;;;29.30;96.70;;;;;;5061242;28;20037;-76
2022/08/29 10:47:24;;;;;;;3.40;1.80;;;29.30;96.70;;;;;;5044608;28;20714;-76
2022/08/29 10:50:13;;;;;;;2.35;1.92;;;29.50;96.70;;;;;;5053664;28;20158;-77
2022/08/29 10:53:06;;;;;;;3.60;1.90;;;29.60;96.70;;;;;;5039679;28;20045;-77
2022/08/29 10:55:43;;;;;;;3.85;2.30;;;29.60;96.70;;;;;;5039386;28;20045;-76
2022/08/29 10:58:25;;;;;;;4.68;2.08;;;29.60;96.70;;;;;;5044000;28;20052;-76
2022/08/29 11:00:58;;;;;;;3.95;2.15;;;29.70;96.70;;;;;;5047454;28;20489;-75
2022/08/29 11:03:39;;;;;;;3.35;1.98;;;30.00;96.70;;;;;;5034909;28;20055;-77
2022/08/29 11:06:13;;;;;;;3.67;1.90;;;30.30;96.70;;;;;;5040733;28;20511;-76
2022/08/29 11:08:45;;;;;;;2.78;1.75;;;30.30;96.70;;;;;;5051884;28;20029;-77
2022/08/29 11:11:16;;;;;;;5.53;2.05;;;30.20;96.70;;;;;;5058569;28;20402;-76
2022/08/29 11:13:52;;;;;;;2.45;1.83;;;30.20;96.70;;;;;;5051220;28;20070;-76
2022/08/29 11:16:28;;;;;;;4.80;1.95;;;30.20;96.70;;;;;;5042755;28;20059;-76
2022/08/29 11:19:04;;;;;;;3.00;2.03;;;30.30;96.70;;;;;;5054661;28;20805;-76
2022/08/29 11:21:39;;;;;;;2.38;1.90;;;30.70;96.70;;;;;;5041056;28;20076;-77
2022/08/29 11:24:11;;;;;;;4.45;2.17;;;31.00;96.70;;;;;;5041220;28;20202;-76
2022/08/29 11:26:52;;;;;;;2.58;1.80;;;31.30;96.70;;;;;;5051702;28;20048;-77
2022/08/29 11:29:31;;;;;;;2.90;1.73;;;31.50;96.70;;;;;;5038078;28;20055;-76
2022/08/29 11:32:06;;;;;;;2.50;1.92;;;31.50;96.70;;;;;;5051849;28;20090;-76
2022/08/29 11:34:50;;;;;;;2.83;1.77;;;31.50;96.70;;;;;;5060908;28;20048;-76
2022/08/29 11:37:48;;;;;;;2.80;1.63;;;31.70;96.70;;;;;;5026815;28;20171;-77
2022/08/29 11:40:36;;;;;;;2.95;1.80;;;31.80;96.70;;;;;;5046523;28;20139;-76
2022/08/29 11:43:27;;;;;;;2.35;1.67;;;31.50;96.70;;;;;;5033894;28;20615;-76
2022/08/29 11:46:01;;;;;;;2.60;1.70;;;31.50;96.70;;;;;;5033274;28;20513;-76
2022/08/29 11:48:35;;;;;;;2.25;1.52;;;31.40;96.70;;;;;;5055424;28;20399;-77
2022/08/29 11:51:33;;;;;;;3.35;1.67;;;31.40;96.70;;;;;;5031932;28;20054;-76
2022/08/29 11:54:39;;;;;;;3.38;1.60;;;31.50;96.70;;;;;;5059706;28;20040;-76
2022/08/29 11:57:45;;;;;;;2.80;1.80;;;31.50;96.70;;;;;;5028666;28;20552;-76
2022/08/29 12:00:40;;;;;;;2.65;1.38;;;31.60;96.70;;;;;;4974641;28;20052;-76
2022/08/29 12:03:51;;;;;;;4.63;1.65;;;31.60;96.70;;;;;;5073649;28;20056;-76
2022/08/29 12:06:52;;;;;;;2.20;1.52;;;31.70;96.70;;;;;;5050741;28;20601;-76
2022/08/29 12:09:34;;;;;;;5.80;1.83;;;31.70;96.70;;;;;;5039409;28;20044;-76
2022/08/29 12:12:42;;;;;;;3.35;1.73;;;32.00;96.70;;;;;;5055148;28;20045;-77
2022/08/29 12:15:43;;;;;;;3.28;1.90;;;32.30;96.70;;;;;;5017406;28;20067;-77
2022/08/29 12:18:33;;;;;;;3.45;1.70;;;32.40;96.70;;;;;;5057078;28;20071;-77
2022/08/29 12:21:45;;;;;;;4.22;1.80;;;32.30;96.70;;;;;;5034946;28;20607;-77
2022/08/29 12:24:39;;;;;;;3.40;1.65;;;32.20;96.70;;;;;;4988505;28;20052;-77
2022/08/29 12:27:25;;;;;;;3.05;1.75;;;32.70;96.70;;;;;;5004333;28;20054;-77
2022/08/29 12:29:54;;;;;;;3.38;1.55;;;32.90;96.70;;;;;;4983698;28;20054;-77
2022/08/29 12:32:45;;;;;;;2.20;1.67;;;33.10;96.70;;;;;;4991917;28;20095;-76
2022/08/29 12:35:28;;;;;;;2.72;1.67;;;33.10;96.70;;;;;;4989511;28;20056;-76
2022/08/29 12:38:11;;;;;;;4.00;1.80;;;33.20;96.70;;;;;;5007546;28;20072;-76
2022/08/29 12:41:02;;;;;;;1.92;1.30;;;33.20;96.70;;;;;;4990543;28;20046;-76
2022/08/29 12:43:41;;;;;;;2.65;1.40;;;33.30;96.70;;;;;;4980159;28;20206;-77
2022/08/29 12:46:17;;;;;;;2.70;1.27;;;33.40;96.70;;;;;;4957836;28;20051;-77
2022/08/29 12:48:51;;;;;;;1.15;1.05;;;33.50;96.70;;;;;;4936106;28;20071;-77
2022/08/29 12:51:37;;;;;;;1.45;1.00;;;33.60;96.70;;;;;;4950660;28;20141;-77
2022/08/29 12:54:07;;;;;;;3.08;1.15;;;33.80;96.70;;;;;;4965535;28;20051;-77
2022/08/29 12:56:41;;;;;;;2.35;1.00;;;34.00;96.70;;;;;;4993673;28;20613;-77
2022/08/29 12:59:17;;;;;;;1.52;1.20;;;33.90;96.70;;;;;;4991662;28;20052;-77
2022/08/29 13:01:47;;;;;;;1.73;1.20;;;33.90;96.70;;;;;;4993063;28;20050;-76
2022/08/29 13:04:19;;;;;;;2.33;1.15;;;33.90;96.70;;;;;;4997914;28;20958;-76
2022/08/29 13:06:53;;;;;;;1.77;1.23;;;34.00;96.70;;;;;;4978445;28;20054;-76
2022/08/29 13:09:26;;;;;;;2.42;1.23;;;34.00;96.70;;;;;;4998021;28;20064;-76
2022/08/29 13:12:13;;;;;;;3.22;1.25;;;34.00;96.70;;;;;;4995437;28;20093;-77
2022/08/29 13:14:56;;;;;;;4.32;1.50;;;34.00;96.70;;;;;;4966300;28;20057;-76
2022/08/29 13:17:29;;;;;;;5.13;1.60;;;34.00;96.70;;;;;;4994460;28;20069;-77
2022/08/29 13:20:39;;;;;;;5.55;1.65;;;34.20;96.70;;;;;;4989295;28;20046;-78
2022/08/29 13:23:17;;;;;;;2.78;1.60;;;34.30;96.70;;;;;;5004950;28;20056;-77